sensor_id;sensor_type;location;lat;lon;timestamp;temperature;humidity
4647;DHT22;2336;47.822;7.564;2023-07-31T00:00:09;17.20;99.90
4647;DHT22;2336;47.822;7.564;2023-07-31T00:02:36;17.20;99.90
4647;DHT22;2336;47.822;7.564;2023-07-31T00:05:04;17.10;99.90
4647;DHT22;2336;47.822;7.564;2023-07-31T00:07:32;17.10;99.90
4647;DHT22;2336;47.822;7.564;2023-07-31T00:09:58;17.10;99.90
4647;DHT22;2336;47.822;7.564;2023-07-31T00:12:25;17.20;99.90
4647;DHT22;2336;47.822;7.564;2023-07-31T00:14:52;17.20;99.90
4647;DHT22;2336;47.822;7.564;2023-07-31T00:17:20;17.10;99.90
4647;DHT22;2336;47.822;7.564;2023-07-31T00:19:47;17.10;99.90
4647;DHT22;2336;47.822;7.564;2023-07-31T00:22:16;17.10;99.90
4647;DHT22;2336;47.822;7.564;2023-07-31T00:24:42;17.10;99.90
4647;DHT22;2336;47.822;7.564;2023-07-31T00:27:09;17.10;99.90
4647;DHT22;2336;47.822;7.564;2023-07-31T00:29:36;17.10;99.90
4647;DHT22;2336;47.822;7.564;2023-07-31T00:32:03;17.10;99.90
4647;DHT22;2336;47.822;7.564;2023-07-31T00:34:31;17.10;99.90
4647;DHT22;2336;47.822;7.564;2023-07-31T00:36:58;17.10;99.90
4647;DHT22;2336;47.822;7.564;2023-07-31T00:39:25;17.20;99.90
4647;DHT22;2336;47.822;7.564;2023-07-31T00:41:51;17.20;99.90
4647;DHT22;2336;47.822;7.564;2023-07-31T00:44:18;17.20;99.90
4647;DHT22;2336;47.822;7.564;2023-07-31T00:46:45;17.10;99.90
4647;DHT22;2336;47.822;7.564;2023-07-31T00:49:12;17.10;99.90
4647;DHT22;2336;47.822;7.564;2023-07-31T00:51:40;17.10;99.90
4647;DHT22;2336;47.822;7.564;2023-07-31T00:54:07;17.10;99.90
4647;DHT22;2336;47.822;7.564;2023-07-31T00:56:34;17.00;99.90
4647;DHT22;2336;47.822;7.564;2023-07-31T00:59:01;17.00;99.90
4647;DHT22;2336;47.822;7.564;2023-07-31T01:01:27;17.00;99.90
4647;DHT22;2336;47.822;7.564;2023-07-31T01:03:54;16.90;99.90
4647;DHT22;2336;47.822;7.564;2023-07-31T01:06:29;16.80;99.90
4647;DHT22;2336;47.822;7.564;2023-07-31T01:09:02;16.80;99.90
4647;DHT22;2336;47.822;7.564;2023-07-31T01:11:31;16.80;99.90
4647;DHT22;2336;47.822;7.564;2023-07-31T01:13:58;16.70;99.90
4647;DHT22;2336;47.822;7.564;2023-07-31T01:16:25;16.80;99.90
4647;DHT22;2336;47.822;7.564;2023-07-31T01:18:52;16.80;99.90
4647;DHT22;2336;47.822;7.564;2023-07-31T01:21:29;16.70;99.90
4647;DHT22;2336;47.822;7.564;2023-07-31T01:24:20;16.60;99.90
4647;DHT22;2336;47.822;7.564;2023-07-31T01:26:55;16.50;99.90
4647;DHT22;2336;47.822;7.564;2023-07-31T01:29:29;16.50;99.90
4647;DHT22;2336;47.822;7.564;2023-07-31T01:32:02;16.40;99.90
4647;DHT22;2336;47.822;7.564;2023-07-31T01:34:29;16.40;99.90
4647;DHT22;2336;47.822;7.564;2023-07-31T01:36:56;16.40;99.90
4647;DHT22;2336;47.822;7.564;2023-07-31T01:39:23;16.40;99.90
4647;DHT22;2336;47.822;7.564;2023-07-31T01:41:51;16.40;99.90
4647;DHT22;2336;47.822;7.564;2023-07-31T01:44:18;16.40;99.90
4647;DHT22;2336;47.822;7.564;2023-07-31T01:46:45;16.40;99.90
4647;DHT22;2336;47.822;7.564;2023-07-31T01:49:12;16.40;99.90
4647;DHT22;2336;47.822;7.564;2023-07-31T01:51:38;16.40;99.90
4647;DHT22;2336;47.822;7.564;2023-07-31T01:54:05;16.40;99.90
4647;DHT22;2336;47.822;7.564;2023-07-31T01:56:32;16.40;99.90
4647;DHT22;2336;47.822;7.564;2023-07-31T01:59:00;16.50;99.90
4647;DHT22;2336;47.822;7.564;2023-07-31T02:01:26;16.50;99.90
4647;DHT22;2336;47.822;7.564;2023-07-31T02:03:53;16.50;99.90
4647;DHT22;2336;47.822;7.564;2023-07-31T02:06:20;16.50;99.90
4647;DHT22;2336;47.822;7.564;2023-07-31T02:08:48;16.50;99.90
4647;DHT22;2336;47.822;7.564;2023-07-31T02:11:14;16.50;99.90
4647;DHT22;2336;47.822;7.564;2023-07-31T02:13:41;16.50;99.90
4647;DHT22;2336;47.822;7.564;2023-07-31T02:16:09;16.50;99.90
4647;DHT22;2336;47.822;7.564;2023-07-31T02:18:36;16.50;99.90
4647;DHT22;2336;47.822;7.564;2023-07-31T02:21:03;16.50;99.90
4647;DHT22;2336;47.822;7.564;2023-07-31T02:23:29;16.50;99.90
4647;DHT22;2336;47.822;7.564;2023-07-31T02:25:56;16.50;99.90
4647;DHT22;2336;47.822;7.564;2023-07-31T02:28:23;16.50;99.90
4647;DHT22;2336;47.822;7.564;2023-07-31T02:30:50;16.40;99.90
4647;DHT22;2336;47.822;7.564;2023-07-31T02:33:18;16.40;99.90
4647;DHT22;2336;47.822;7.564;2023-07-31T02:35:45;16.40;99.90
4647;DHT22;2336;47.822;7.564;2023-07-31T02:38:12;16.40;99.90
4647;DHT22;2336;47.822;7.564;2023-07-31T02:40:39;16.40;99.90
4647;DHT22;2336;47.822;7.564;2023-07-31T02:43:06;16.40;99.90
4647;DHT22;2336;47.822;7.564;2023-07-31T02:45:33;16.30;99.90
4647;DHT22;2336;47.822;7.564;2023-07-31T02:48:00;16.40;99.90
4647;DHT22;2336;47.822;7.564;2023-07-31T02:50:28;16.40;99.90
4647;DHT22;2336;47.822;7.564;2023-07-31T02:52:55;16.30;99.90
4647;DHT22;2336;47.822;7.564;2023-07-31T02:55:21;16.40;99.90
4647;DHT22;2336;47.822;7.564;2023-07-31T02:57:48;16.30;99.90
4647;DHT22;2336;47.822;7.564;2023-07-31T03:00:15;16.30;99.90
4647;DHT22;2336;47.822;7.564;2023-07-31T03:02:42;16.30;99.90
4647;DHT22;2336;47.822;7.564;2023-07-31T03:05:08;16.30;99.90
4647;DHT22;2336;47.822;7.564;2023-07-31T03:07:37;16.30;99.90
4647;DHT22;2336;47.822;7.564;2023-07-31T03:10:04;16.30;99.90
4647;DHT22;2336;47.822;7.564;2023-07-31T03:12:31;16.20;99.90
4647;DHT22;2336;47.822;7.564;2023-07-31T03:14:58;16.30;99.90
4647;DHT22;2336;47.822;7.564;2023-07-31T03:17:25;16.30;99.90
4647;DHT22;2336;47.822;7.564;2023-07-31T03:19:51;16.30;99.90
4647;DHT22;2336;47.822;7.564;2023-07-31T03:22:18;16.30;99.90
4647;DHT22;2336;47.822;7.564;2023-07-31T03:24:46;16.30;99.90
4647;DHT22;2336;47.822;7.564;2023-07-31T03:27:13;16.30;99.90
4647;DHT22;2336;47.822;7.564;2023-07-31T03:29:40;16.30;99.90
4647;DHT22;2336;47.822;7.564;2023-07-31T03:32:06;16.40;99.90
4647;DHT22;2336;47.822;7.564;2023-07-31T03:34:33;16.40;99.90
4647;DHT22;2336;47.822;7.564;2023-07-31T03:37:00;16.40;99.90
4647;DHT22;2336;47.822;7.564;2023-07-31T03:39:27;16.40;99.90
4647;DHT22;2336;47.822;7.564;2023-07-31T03:41:55;16.40;99.90
4647;DHT22;2336;47.822;7.564;2023-07-31T03:44:21;16.40;99.90
4647;DHT22;2336;47.822;7.564;2023-07-31T03:46:48;16.40;99.90
4647;DHT22;2336;47.822;7.564;2023-07-31T03:49:15;16.40;99.90
4647;DHT22;2336;47.822;7.564;2023-07-31T03:51:42;16.40;99.90
4647;DHT22;2336;47.822;7.564;2023-07-31T03:54:08;16.40;99.90
4647;DHT22;2336;47.822;7.564;2023-07-31T03:56:35;16.40;99.90
4647;DHT22;2336;47.822;7.564;2023-07-31T03:59:05;16.40;99.90
4647;DHT22;2336;47.822;7.564;2023-07-31T04:01:32;16.40;99.90
4647;DHT22;2336;47.822;7.564;2023-07-31T04:03:58;16.40;99.90
4647;DHT22;2336;47.822;7.564;2023-07-31T04:06:25;16.40;99.90
4647;DHT22;2336;47.822;7.564;2023-07-31T04:08:52;16.30;99.90
4647;DHT22;2336;47.822;7.564;2023-07-31T04:11:18;16.30;99.90
4647;DHT22;2336;47.822;7.564;2023-07-31T04:13:45;16.30;99.90
4647;DHT22;2336;47.822;7.564;2023-07-31T04:16:13;16.30;99.90
4647;DHT22;2336;47.822;7.564;2023-07-31T04:18:40;16.30;99.90
4647;DHT22;2336;47.822;7.564;2023-07-31T04:21:07;16.30;99.90
4647;DHT22;2336;47.822;7.564;2023-07-31T04:23:33;16.30;99.90
4647;DHT22;2336;47.822;7.564;2023-07-31T04:26:00;16.30;99.90
4647;DHT22;2336;47.822;7.564;2023-07-31T04:28:27;16.30;99.90
4647;DHT22;2336;47.822;7.564;2023-07-31T04:30:54;16.30;99.90
4647;DHT22;2336;47.822;7.564;2023-07-31T04:33:22;16.30;99.90
4647;DHT22;2336;47.822;7.564;2023-07-31T04:35:50;16.30;99.90
4647;DHT22;2336;47.822;7.564;2023-07-31T04:38:18;16.30;99.90
4647;DHT22;2336;47.822;7.564;2023-07-31T04:40:45;16.30;99.90
4647;DHT22;2336;47.822;7.564;2023-07-31T04:43:11;16.30;99.90
4647;DHT22;2336;47.822;7.564;2023-07-31T04:45:38;16.40;99.90
4647;DHT22;2336;47.822;7.564;2023-07-31T04:48:05;16.40;99.90
4647;DHT22;2336;47.822;7.564;2023-07-31T04:50:33;16.40;99.90
4647;DHT22;2336;47.822;7.564;2023-07-31T04:53:00;16.30;99.90
4647;DHT22;2336;47.822;7.564;2023-07-31T04:55:26;16.30;99.90
4647;DHT22;2336;47.822;7.564;2023-07-31T04:57:53;16.30;99.90
4647;DHT22;2336;47.822;7.564;2023-07-31T05:00:20;16.30;99.90
4647;DHT22;2336;47.822;7.564;2023-07-31T05:02:47;16.30;99.90
4647;DHT22;2336;47.822;7.564;2023-07-31T05:05:13;16.30;99.90
4647;DHT22;2336;47.822;7.564;2023-07-31T05:07:41;16.30;99.90
4647;DHT22;2336;47.822;7.564;2023-07-31T05:10:09;16.30;99.90
4647;DHT22;2336;47.822;7.564;2023-07-31T05:12:35;16.40;99.90
4647;DHT22;2336;47.822;7.564;2023-07-31T05:15:03;16.50;99.90
4647;DHT22;2336;47.822;7.564;2023-07-31T05:17:30;16.50;99.90
4647;DHT22;2336;47.822;7.564;2023-07-31T05:19:57;16.60;99.90
4647;DHT22;2336;47.822;7.564;2023-07-31T05:22:23;16.60;99.90
4647;DHT22;2336;47.822;7.564;2023-07-31T05:24:51;16.70;99.90
4647;DHT22;2336;47.822;7.564;2023-07-31T05:27:19;16.70;99.90
4647;DHT22;2336;47.822;7.564;2023-07-31T05:29:46;16.70;99.90
4647;DHT22;2336;47.822;7.564;2023-07-31T05:32:12;16.70;99.90
4647;DHT22;2336;47.822;7.564;2023-07-31T05:34:39;16.80;99.90
4647;DHT22;2336;47.822;7.564;2023-07-31T05:37:06;16.80;99.90
4647;DHT22;2336;47.822;7.564;2023-07-31T05:39:33;16.80;99.90
4647;DHT22;2336;47.822;7.564;2023-07-31T05:42:01;16.80;99.90
4647;DHT22;2336;47.822;7.564;2023-07-31T05:44:27;16.80;99.90
4647;DHT22;2336;47.822;7.564;2023-07-31T05:46:54;16.80;99.90
4647;DHT22;2336;47.822;7.564;2023-07-31T05:49:21;16.80;99.90
4647;DHT22;2336;47.822;7.564;2023-07-31T05:51:47;16.80;99.90
4647;DHT22;2336;47.822;7.564;2023-07-31T05:54:14;16.80;99.90
4647;DHT22;2336;47.822;7.564;2023-07-31T05:56:41;16.90;99.90
4647;DHT22;2336;47.822;7.564;2023-07-31T05:59:11;16.90;99.90
4647;DHT22;2336;47.822;7.564;2023-07-31T06:01:38;16.90;99.90
4647;DHT22;2336;47.822;7.564;2023-07-31T06:04:05;16.90;99.90
4647;DHT22;2336;47.822;7.564;2023-07-31T06:06:32;17.00;99.90
4647;DHT22;2336;47.822;7.564;2023-07-31T06:08:58;17.00;99.90
4647;DHT22;2336;47.822;7.564;2023-07-31T06:11:25;17.10;99.90
4647;DHT22;2336;47.822;7.564;2023-07-31T06:13:52;17.20;99.90
4647;DHT22;2336;47.822;7.564;2023-07-31T06:16:20;17.30;99.90
4647;DHT22;2336;47.822;7.564;2023-07-31T06:18:47;17.40;99.90
4647;DHT22;2336;47.822;7.564;2023-07-31T06:21:13;17.50;99.90
4647;DHT22;2336;47.822;7.564;2023-07-31T06:23:40;17.50;99.90
4647;DHT22;2336;47.822;7.564;2023-07-31T06:26:07;17.40;99.90
4647;DHT22;2336;47.822;7.564;2023-07-31T06:28:34;17.40;99.90
4647;DHT22;2336;47.822;7.564;2023-07-31T06:31:01;17.30;99.90
4647;DHT22;2336;47.822;7.564;2023-07-31T06:33:29;17.30;99.90
4647;DHT22;2336;47.822;7.564;2023-07-31T06:35:56;17.40;99.90
4647;DHT22;2336;47.822;7.564;2023-07-31T06:38:24;17.50;99.90
4647;DHT22;2336;47.822;7.564;2023-07-31T06:40:52;17.60;99.90
4647;DHT22;2336;47.822;7.564;2023-07-31T06:43:18;17.60;99.90
4647;DHT22;2336;47.822;7.564;2023-07-31T06:45:45;17.60;99.90
4647;DHT22;2336;47.822;7.564;2023-07-31T06:48:13;17.70;99.90
4647;DHT22;2336;47.822;7.564;2023-07-31T06:50:41;17.70;99.90
4647;DHT22;2336;47.822;7.564;2023-07-31T06:53:08;17.70;99.90
4647;DHT22;2336;47.822;7.564;2023-07-31T06:55:35;17.90;99.90
4647;DHT22;2336;47.822;7.564;2023-07-31T06:58:02;17.90;99.90
4647;DHT22;2336;47.822;7.564;2023-07-31T07:00:29;18.10;99.90
4647;DHT22;2336;47.822;7.564;2023-07-31T07:02:57;18.30;99.90
4647;DHT22;2336;47.822;7.564;2023-07-31T07:05:24;18.30;99.90
4647;DHT22;2336;47.822;7.564;2023-07-31T07:07:53;18.30;99.90
4647;DHT22;2336;47.822;7.564;2023-07-31T07:10:19;18.30;99.90
4647;DHT22;2336;47.822;7.564;2023-07-31T07:12:46;18.40;99.90
4647;DHT22;2336;47.822;7.564;2023-07-31T07:15:13;18.50;99.90
4647;DHT22;2336;47.822;7.564;2023-07-31T07:17:40;18.60;99.90
4647;DHT22;2336;47.822;7.564;2023-07-31T07:20:08;18.60;99.90
4647;DHT22;2336;47.822;7.564;2023-07-31T07:22:35;18.70;99.90
4647;DHT22;2336;47.822;7.564;2023-07-31T07:25:04;18.70;99.90
4647;DHT22;2336;47.822;7.564;2023-07-31T07:27:32;18.80;99.90
4647;DHT22;2336;47.822;7.564;2023-07-31T07:29:59;18.80;99.90
4647;DHT22;2336;47.822;7.564;2023-07-31T07:32:26;18.80;99.90
4647;DHT22;2336;47.822;7.564;2023-07-31T07:34:53;18.90;99.90
4647;DHT22;2336;47.822;7.564;2023-07-31T07:37:19;18.90;99.90
4647;DHT22;2336;47.822;7.564;2023-07-31T07:39:46;19.00;99.90
4647;DHT22;2336;47.822;7.564;2023-07-31T07:42:14;19.20;99.90
4647;DHT22;2336;47.822;7.564;2023-07-31T07:44:41;19.20;99.90
4647;DHT22;2336;47.822;7.564;2023-07-31T07:47:08;19.30;99.90
4647;DHT22;2336;47.822;7.564;2023-07-31T07:49:35;19.40;99.90
4647;DHT22;2336;47.822;7.564;2023-07-31T07:52:02;19.50;99.90
4647;DHT22;2336;47.822;7.564;2023-07-31T07:54:29;19.50;99.90
4647;DHT22;2336;47.822;7.564;2023-07-31T07:56:56;19.60;99.90
4647;DHT22;2336;47.822;7.564;2023-07-31T07:59:24;19.70;99.90
4647;DHT22;2336;47.822;7.564;2023-07-31T08:01:51;19.80;99.90
4647;DHT22;2336;47.822;7.564;2023-07-31T08:04:17;19.90;99.90
4647;DHT22;2336;47.822;7.564;2023-07-31T08:06:44;20.00;99.90
4647;DHT22;2336;47.822;7.564;2023-07-31T08:09:11;20.00;99.90
4647;DHT22;2336;47.822;7.564;2023-07-31T08:11:37;20.10;99.90
4647;DHT22;2336;47.822;7.564;2023-07-31T08:14:04;20.20;99.90
4647;DHT22;2336;47.822;7.564;2023-07-31T08:16:32;20.30;99.90
4647;DHT22;2336;47.822;7.564;2023-07-31T08:18:59;20.40;99.90
4647;DHT22;2336;47.822;7.564;2023-07-31T08:21:26;20.30;99.90
4647;DHT22;2336;47.822;7.564;2023-07-31T08:23:52;20.40;99.90
4647;DHT22;2336;47.822;7.564;2023-07-31T08:26:21;20.40;99.90
4647;DHT22;2336;47.822;7.564;2023-07-31T08:28:47;20.50;99.90
4647;DHT22;2336;47.822;7.564;2023-07-31T08:31:14;20.60;99.90
4647;DHT22;2336;47.822;7.564;2023-07-31T08:33:42;20.80;99.90
4647;DHT22;2336;47.822;7.564;2023-07-31T08:36:09;20.90;99.90
4647;DHT22;2336;47.822;7.564;2023-07-31T08:38:36;21.00;99.90
4647;DHT22;2336;47.822;7.564;2023-07-31T08:41:03;21.10;99.90
4647;DHT22;2336;47.822;7.564;2023-07-31T08:43:30;21.20;99.90
4647;DHT22;2336;47.822;7.564;2023-07-31T08:45:57;21.30;99.90
4647;DHT22;2336;47.822;7.564;2023-07-31T08:48:24;21.40;99.90
4647;DHT22;2336;47.822;7.564;2023-07-31T08:50:53;21.50;99.90
4647;DHT22;2336;47.822;7.564;2023-07-31T08:53:20;21.50;99.90
4647;DHT22;2336;47.822;7.564;2023-07-31T08:55:49;21.60;99.90
4647;DHT22;2336;47.822;7.564;2023-07-31T08:58:17;21.60;99.90
4647;DHT22;2336;47.822;7.564;2023-07-31T09:00:46;21.60;99.90
4647;DHT22;2336;47.822;7.564;2023-07-31T09:03:14;21.60;99.90
4647;DHT22;2336;47.822;7.564;2023-07-31T09:05:43;21.50;99.90
4647;DHT22;2336;47.822;7.564;2023-07-31T09:08:12;21.50;99.90
4647;DHT22;2336;47.822;7.564;2023-07-31T09:10:43;21.60;99.90
4647;DHT22;2336;47.822;7.564;2023-07-31T09:13:11;21.60;99.90
4647;DHT22;2336;47.822;7.564;2023-07-31T09:15:39;21.60;99.90
4647;DHT22;2336;47.822;7.564;2023-07-31T09:18:07;21.70;99.90
4647;DHT22;2336;47.822;7.564;2023-07-31T09:20:34;21.60;99.90
4647;DHT22;2336;47.822;7.564;2023-07-31T09:23:06;21.70;99.90
4647;DHT22;2336;47.822;7.564;2023-07-31T09:25:36;21.70;99.90
4647;DHT22;2336;47.822;7.564;2023-07-31T09:28:04;21.60;99.90
4647;DHT22;2336;47.822;7.564;2023-07-31T09:30:32;21.60;99.90
4647;DHT22;2336;47.822;7.564;2023-07-31T09:33:10;21.60;99.90
4647;DHT22;2336;47.822;7.564;2023-07-31T09:35:36;21.50;99.90
4647;DHT22;2336;47.822;7.564;2023-07-31T09:38:07;21.60;99.90
4647;DHT22;2336;47.822;7.564;2023-07-31T09:40:37;21.70;99.90
4647;DHT22;2336;47.822;7.564;2023-07-31T09:43:05;21.70;99.90
4647;DHT22;2336;47.822;7.564;2023-07-31T09:45:34;21.90;99.90
4647;DHT22;2336;47.822;7.564;2023-07-31T09:48:02;22.00;99.90
4647;DHT22;2336;47.822;7.564;2023-07-31T09:50:29;22.00;99.90
4647;DHT22;2336;47.822;7.564;2023-07-31T09:52:56;22.00;99.90
4647;DHT22;2336;47.822;7.564;2023-07-31T09:55:24;21.90;99.90
4647;DHT22;2336;47.822;7.564;2023-07-31T09:57:55;21.90;99.90
4647;DHT22;2336;47.822;7.564;2023-07-31T10:00:23;21.80;99.90
4647;DHT22;2336;47.822;7.564;2023-07-31T10:02:53;21.90;99.90
4647;DHT22;2336;47.822;7.564;2023-07-31T10:05:21;22.00;99.90
4647;DHT22;2336;47.822;7.564;2023-07-31T10:07:53;22.20;99.90
4647;DHT22;2336;47.822;7.564;2023-07-31T10:10:21;22.30;99.90
4647;DHT22;2336;47.822;7.564;2023-07-31T10:12:49;22.60;99.90
4647;DHT22;2336;47.822;7.564;2023-07-31T10:15:17;22.90;99.90
4647;DHT22;2336;47.822;7.564;2023-07-31T10:17:45;23.10;99.90
4647;DHT22;2336;47.822;7.564;2023-07-31T10:20:13;23.00;99.90
4647;DHT22;2336;47.822;7.564;2023-07-31T10:22:42;23.00;99.90
4647;DHT22;2336;47.822;7.564;2023-07-31T10:25:12;23.10;99.90
4647;DHT22;2336;47.822;7.564;2023-07-31T10:27:39;23.50;99.90
4647;DHT22;2336;47.822;7.564;2023-07-31T10:30:08;23.80;99.90
4647;DHT22;2336;47.822;7.564;2023-07-31T10:32:38;24.10;99.90
4647;DHT22;2336;47.822;7.564;2023-07-31T10:35:06;24.00;99.90
4647;DHT22;2336;47.822;7.564;2023-07-31T10:37:37;24.00;99.90
4647;DHT22;2336;47.822;7.564;2023-07-31T10:40:06;24.00;99.90
4647;DHT22;2336;47.822;7.564;2023-07-31T10:42:34;24.00;99.90
4647;DHT22;2336;47.822;7.564;2023-07-31T10:45:03;24.10;99.90
4647;DHT22;2336;47.822;7.564;2023-07-31T10:47:31;24.20;99.90
4647;DHT22;2336;47.822;7.564;2023-07-31T10:50:17;24.40;99.90
4647;DHT22;2336;47.822;7.564;2023-07-31T10:52:47;24.30;99.90
4647;DHT22;2336;47.822;7.564;2023-07-31T10:55:16;24.00;99.90
4647;DHT22;2336;47.822;7.564;2023-07-31T10:57:48;23.90;99.90
4647;DHT22;2336;47.822;7.564;2023-07-31T11:00:20;23.70;99.90
4647;DHT22;2336;47.822;7.564;2023-07-31T11:02:56;23.60;99.90
4647;DHT22;2336;47.822;7.564;2023-07-31T11:05:44;23.50;99.90
4647;DHT22;2336;47.822;7.564;2023-07-31T11:08:13;23.60;99.90
4647;DHT22;2336;47.822;7.564;2023-07-31T11:10:40;23.60;99.90
4647;DHT22;2336;47.822;7.564;2023-07-31T11:13:06;23.60;99.90
4647;DHT22;2336;47.822;7.564;2023-07-31T11:15:33;23.50;99.90
4647;DHT22;2336;47.822;7.564;2023-07-31T11:18:00;23.40;99.90
4647;DHT22;2336;47.822;7.564;2023-07-31T11:20:29;23.50;99.90
4647;DHT22;2336;47.822;7.564;2023-07-31T11:23:00;23.50;99.90
4647;DHT22;2336;47.822;7.564;2023-07-31T11:25:28;23.50;99.90
4647;DHT22;2336;47.822;7.564;2023-07-31T11:27:55;23.90;99.90
4647;DHT22;2336;47.822;7.564;2023-07-31T11:30:22;24.30;99.90
4647;DHT22;2336;47.822;7.564;2023-07-31T11:32:49;24.80;99.90
4647;DHT22;2336;47.822;7.564;2023-07-31T11:35:17;24.90;99.90
4647;DHT22;2336;47.822;7.564;2023-07-31T11:37:44;24.90;99.90
4647;DHT22;2336;47.822;7.564;2023-07-31T11:40:12;25.10;99.90
4647;DHT22;2336;47.822;7.564;2023-07-31T11:42:39;25.00;99.90
4647;DHT22;2336;47.822;7.564;2023-07-31T11:45:07;24.90;99.90
4647;DHT22;2336;47.822;7.564;2023-07-31T11:47:35;25.00;99.90
4647;DHT22;2336;47.822;7.564;2023-07-31T11:50:04;25.30;99.90
4647;DHT22;2336;47.822;7.564;2023-07-31T11:52:34;25.80;99.60
4647;DHT22;2336;47.822;7.564;2023-07-31T11:55:02;25.70;99.40
4647;DHT22;2336;47.822;7.564;2023-07-31T11:57:31;25.30;99.90
4647;DHT22;2336;47.822;7.564;2023-07-31T11:59:58;25.30;99.90
4647;DHT22;2336;47.822;7.564;2023-07-31T12:02:25;25.10;99.90
4647;DHT22;2336;47.822;7.564;2023-07-31T12:04:52;25.30;99.90
4647;DHT22;2336;47.822;7.564;2023-07-31T12:07:19;25.50;99.30
4647;DHT22;2336;47.822;7.564;2023-07-31T12:09:55;25.20;99.40
4647;DHT22;2336;47.822;7.564;2023-07-31T12:12:23;25.10;99.90
4647;DHT22;2336;47.822;7.564;2023-07-31T12:14:51;25.20;99.90
4647;DHT22;2336;47.822;7.564;2023-07-31T12:17:19;25.20;99.90
4647;DHT22;2336;47.822;7.564;2023-07-31T12:19:48;25.60;99.60
4647;DHT22;2336;47.822;7.564;2023-07-31T12:22:16;25.80;99.00
4647;DHT22;2336;47.822;7.564;2023-07-31T12:24:44;25.80;99.20
4647;DHT22;2336;47.822;7.564;2023-07-31T12:27:11;26.00;98.70
4647;DHT22;2336;47.822;7.564;2023-07-31T12:29:38;26.00;98.70
4647;DHT22;2336;47.822;7.564;2023-07-31T12:32:20;26.10;99.60
4647;DHT22;2336;47.822;7.564;2023-07-31T12:34:47;25.90;99.40
4647;DHT22;2336;47.822;7.564;2023-07-31T12:37:13;26.10;99.40
4647;DHT22;2336;47.822;7.564;2023-07-31T12:39:40;26.00;98.60
4647;DHT22;2336;47.822;7.564;2023-07-31T12:42:07;25.90;98.60
4647;DHT22;2336;47.822;7.564;2023-07-31T12:44:33;25.70;98.40
4647;DHT22;2336;47.822;7.564;2023-07-31T12:47:00;25.50;98.40
4647;DHT22;2336;47.822;7.564;2023-07-31T12:49:28;25.50;99.10
4647;DHT22;2336;47.822;7.564;2023-07-31T12:51:55;25.60;98.80
4647;DHT22;2336;47.822;7.564;2023-07-31T12:54:22;25.80;98.70
4647;DHT22;2336;47.822;7.564;2023-07-31T12:56:48;26.10;99.00
4647;DHT22;2336;47.822;7.564;2023-07-31T12:59:15;26.10;98.90
4647;DHT22;2336;47.822;7.564;2023-07-31T13:01:42;26.10;98.50
4647;DHT22;2336;47.822;7.564;2023-07-31T13:04:08;26.10;98.70
4647;DHT22;2336;47.822;7.564;2023-07-31T13:06:37;25.90;98.40
4647;DHT22;2336;47.822;7.564;2023-07-31T13:09:03;26.00;99.30
4647;DHT22;2336;47.822;7.564;2023-07-31T13:11:30;26.10;99.50
4647;DHT22;2336;47.822;7.564;2023-07-31T13:13:57;26.30;98.40
4647;DHT22;2336;47.822;7.564;2023-07-31T13:16:24;26.30;98.90
4647;DHT22;2336;47.822;7.564;2023-07-31T13:18:50;26.40;98.70
4647;DHT22;2336;47.822;7.564;2023-07-31T13:21:18;26.60;98.40
4647;DHT22;2336;47.822;7.564;2023-07-31T13:23:48;26.40;97.70
4647;DHT22;2336;47.822;7.564;2023-07-31T13:26:15;26.40;98.00
4647;DHT22;2336;47.822;7.564;2023-07-31T13:28:41;26.50;98.30
4647;DHT22;2336;47.822;7.564;2023-07-31T13:31:08;26.60;97.50
4647;DHT22;2336;47.822;7.564;2023-07-31T13:33:36;26.80;98.10
4647;DHT22;2336;47.822;7.564;2023-07-31T13:36:03;27.00;98.10
4647;DHT22;2336;47.822;7.564;2023-07-31T13:38:30;27.10;97.40
4647;DHT22;2336;47.822;7.564;2023-07-31T13:40:58;27.00;97.40
4647;DHT22;2336;47.822;7.564;2023-07-31T13:43:25;27.00;97.50
4647;DHT22;2336;47.822;7.564;2023-07-31T13:45:51;26.80;97.30
4647;DHT22;2336;47.822;7.564;2023-07-31T13:48:18;26.70;97.00
4647;DHT22;2336;47.822;7.564;2023-07-31T13:50:45;26.50;96.90
4647;DHT22;2336;47.822;7.564;2023-07-31T13:53:12;26.40;96.60
4647;DHT22;2336;47.822;7.564;2023-07-31T13:55:38;26.40;96.70
4647;DHT22;2336;47.822;7.564;2023-07-31T13:58:06;26.30;96.80
4647;DHT22;2336;47.822;7.564;2023-07-31T14:00:33;26.40;97.10
4647;DHT22;2336;47.822;7.564;2023-07-31T14:03:00;26.30;97.20
4647;DHT22;2336;47.822;7.564;2023-07-31T14:05:27;26.40;97.80
4647;DHT22;2336;47.822;7.564;2023-07-31T14:07:54;26.30;97.90
4647;DHT22;2336;47.822;7.564;2023-07-31T14:10:20;26.30;98.00
4647;DHT22;2336;47.822;7.564;2023-07-31T14:12:47;26.30;97.70
4647;DHT22;2336;47.822;7.564;2023-07-31T14:15:15;26.20;97.50
4647;DHT22;2336;47.822;7.564;2023-07-31T14:17:42;26.30;97.40
4647;DHT22;2336;47.822;7.564;2023-07-31T14:20:10;26.20;97.80
4647;DHT22;2336;47.822;7.564;2023-07-31T14:22:37;26.10;98.20
4647;DHT22;2336;47.822;7.564;2023-07-31T14:25:05;26.30;99.30
4647;DHT22;2336;47.822;7.564;2023-07-31T14:27:33;26.20;97.40
4647;DHT22;2336;47.822;7.564;2023-07-31T14:30:00;26.20;97.50
4647;DHT22;2336;47.822;7.564;2023-07-31T14:32:28;26.10;97.10
4647;DHT22;2336;47.822;7.564;2023-07-31T14:34:54;26.20;97.30
4647;DHT22;2336;47.822;7.564;2023-07-31T14:37:21;26.30;96.50
4647;DHT22;2336;47.822;7.564;2023-07-31T14:39:48;26.30;97.70
4647;DHT22;2336;47.822;7.564;2023-07-31T14:42:15;26.30;97.10
4647;DHT22;2336;47.822;7.564;2023-07-31T14:44:43;26.10;96.00
4647;DHT22;2336;47.822;7.564;2023-07-31T14:47:12;26.10;97.10
4647;DHT22;2336;47.822;7.564;2023-07-31T14:49:40;26.10;97.30
4647;DHT22;2336;47.822;7.564;2023-07-31T14:52:07;26.10;97.00
4647;DHT22;2336;47.822;7.564;2023-07-31T14:54:34;26.10;97.50
4647;DHT22;2336;47.822;7.564;2023-07-31T14:57:01;26.10;97.10
4647;DHT22;2336;47.822;7.564;2023-07-31T14:59:28;26.10;97.70
4647;DHT22;2336;47.822;7.564;2023-07-31T15:01:55;26.10;97.30
4647;DHT22;2336;47.822;7.564;2023-07-31T15:04:21;26.00;97.70
4647;DHT22;2336;47.822;7.564;2023-07-31T15:06:50;25.80;97.50
4647;DHT22;2336;47.822;7.564;2023-07-31T15:09:17;25.80;97.50
4647;DHT22;2336;47.822;7.564;2023-07-31T15:11:44;25.80;97.10
4647;DHT22;2336;47.822;7.564;2023-07-31T15:14:10;25.70;97.20
4647;DHT22;2336;47.822;7.564;2023-07-31T15:16:37;25.50;97.80
4647;DHT22;2336;47.822;7.564;2023-07-31T15:19:04;25.30;97.60
4647;DHT22;2336;47.822;7.564;2023-07-31T15:21:30;25.30;97.90
4647;DHT22;2336;47.822;7.564;2023-07-31T15:23:58;25.20;98.00
4647;DHT22;2336;47.822;7.564;2023-07-31T15:26:25;25.10;98.00
4647;DHT22;2336;47.822;7.564;2023-07-31T15:28:57;25.00;99.20
4647;DHT22;2336;47.822;7.564;2023-07-31T15:31:26;25.00;98.60
4647;DHT22;2336;47.822;7.564;2023-07-31T15:33:53;25.00;98.70
4647;DHT22;2336;47.822;7.564;2023-07-31T15:36:20;24.90;99.10
4647;DHT22;2336;47.822;7.564;2023-07-31T15:38:46;24.80;99.60
4647;DHT22;2336;47.822;7.564;2023-07-31T15:41:17;24.80;99.90
4647;DHT22;2336;47.822;7.564;2023-07-31T15:43:44;24.70;99.90
4647;DHT22;2336;47.822;7.564;2023-07-31T15:46:11;24.70;99.90
4647;DHT22;2336;47.822;7.564;2023-07-31T15:48:38;24.60;99.90
4647;DHT22;2336;47.822;7.564;2023-07-31T15:51:05;24.60;99.90
4647;DHT22;2336;47.822;7.564;2023-07-31T15:53:32;24.70;99.90
4647;DHT22;2336;47.822;7.564;2023-07-31T15:55:58;24.70;99.90
4647;DHT22;2336;47.822;7.564;2023-07-31T15:58:27;24.70;99.90
4647;DHT22;2336;47.822;7.564;2023-07-31T16:00:54;24.70;99.90
4647;DHT22;2336;47.822;7.564;2023-07-31T16:03:21;24.70;99.90